Terminal Aerodrome Forecast
Issued by NWS Charleston, WV

Home | Current Version | Previous Version | Text Only | Print | Product List | Glossary On
Versions: 1 2 3 4 5 6 7 8 9 10 11 12 13 14 15 16 17 18 19 20 21 22 23 24 25 26 27 28 29 30 31 32 33 34 35 36 37 38 39 40 41 42 43 44 45 46 47 48 49 50
000
FTUS41 KRLX 131505 AAU
TAFHTS
TAF AMD
KHTS 131505Z 1315/1412 VRB03KT 2SM BR BKN002 OVC025
     FM131600 16003KT 4SM BR BKN009 OVC025
     FM132300 06005KT 4SM BR OVC015
     FM140100 06004KT 3SM -RA OVC010
     FM140400 VRB03KT 2SM -RA OVC007
     FM141000 VRB03KT 5SM RA OVC008=

USA.gov is the U.S. government's official web portal to all federal, state and local government web resources and services.